Time;durP1;ratioP1;P1;durP2;ratioP2;P2;SDS_P1;SDS_P2;PMS_P1;PMS_P2;Temp;Humidity;BMP_temperature;BMP_pressure;BME280_temperature;BME280_humidity;BME280_pressure;Samples;Min_cycle;Max_cycle;Signal;HPM_P1;HPM_P2
2021/09/07 00:01:06;;;;;;;26.23;15.70;;;15.10;99.90;;;;;;5034053;28;20185;-65
2021/09/07 00:03:36;;;;;;;24.60;15.17;;;15.10;99.90;;;;;;5034617;28;20265;-64
2021/09/07 00:06:04;;;;;;;24.50;15.17;;;15.10;99.90;;;;;;5031633;28;20193;-65
2021/09/07 00:08:33;;;;;;;24.93;15.60;;;15.10;99.90;;;;;;5036497;28;20217;-64
2021/09/07 00:11:01;;;;;;;22.60;14.60;;;15.00;99.90;;;;;;5033079;28;20498;-64
2021/09/07 00:13:30;;;;;;;22.90;14.40;;;15.00;99.90;;;;;;5035648;28;20189;-65
2021/09/07 00:15:58;;;;;;;26.63;15.53;;;14.90;99.90;;;;;;5035803;28;20186;-65
2021/09/07 00:18:27;;;;;;;23.37;15.77;;;14.90;99.90;;;;;;5031735;28;20189;-65
2021/09/07 00:20:57;;;;;;;25.80;15.53;;;14.80;99.90;;;;;;5032071;28;20417;-65
2021/09/07 00:23:25;;;;;;;25.77;15.27;;;14.80;99.90;;;;;;5032470;28;20225;-64
2021/09/07 00:25:54;;;;;;;22.90;15.13;;;14.80;99.90;;;;;;5048656;28;20223;-65
2021/09/07 00:28:22;;;;;;;25.97;15.50;;;14.80;99.90;;;;;;5056965;28;20503;-65
2021/09/07 00:30:51;;;;;;;24.73;15.87;;;14.80;99.90;;;;;;5051229;28;20184;-65
2021/09/07 00:33:19;;;;;;;23.27;15.17;;;14.80;99.90;;;;;;5036259;28;20181;-65
2021/09/07 00:35:47;;;;;;;22.77;15.20;;;14.80;99.90;;;;;;5052035;28;20326;-65
2021/09/07 00:38:17;;;;;;;22.23;14.63;;;14.80;99.90;;;;;;5039796;28;20184;-64
2021/09/07 00:40:46;;;;;;;23.33;14.70;;;14.70;99.90;;;;;;5054787;28;20216;-65
2021/09/07 00:43:14;;;;;;;23.60;14.17;;;14.70;99.90;;;;;;5054416;28;20235;-65
2021/09/07 00:45:42;;;;;;;23.73;14.50;;;14.70;99.90;;;;;;5035778;28;20351;-64
2021/09/07 00:48:11;;;;;;;21.60;13.77;;;14.60;99.90;;;;;;5052676;28;20278;-64
2021/09/07 00:50:39;;;;;;;22.07;14.33;;;14.60;99.90;;;;;;5055385;28;20177;-64
2021/09/07 00:53:08;;;;;;;26.17;14.83;;;14.60;99.90;;;;;;5056805;28;20291;-64
2021/09/07 00:55:39;;;;;;;22.70;14.30;;;14.50;99.90;;;;;;5056163;28;20419;-64
2021/09/07 00:58:09;;;;;;;23.53;14.13;;;14.50;99.90;;;;;;5054771;28;20427;-65
2021/09/07 01:00:37;;;;;;;24.57;14.50;;;14.40;99.90;;;;;;5054732;28;20399;-64
2021/09/07 01:03:06;;;;;;;22.90;14.93;;;14.40;99.90;;;;;;5054852;28;20176;-65
2021/09/07 01:05:35;;;;;;;22.97;14.23;;;14.40;99.90;;;;;;5055815;28;20184;-64
2021/09/07 01:08:05;;;;;;;25.47;15.17;;;14.40;99.90;;;;;;5053482;28;20185;-65
2021/09/07 01:10:36;;;;;;;25.63;15.37;;;14.40;99.90;;;;;;5054351;28;20231;-64
2021/09/07 01:13:06;;;;;;;24.60;14.67;;;14.30;99.90;;;;;;5053881;28;20178;-64
2021/09/07 01:15:35;;;;;;;23.07;14.70;;;14.30;99.90;;;;;;5057372;28;20188;-64
2021/09/07 01:18:03;;;;;;;26.37;15.37;;;14.30;99.90;;;;;;5057049;28;20420;-64
2021/09/07 01:20:32;;;;;;;24.43;15.57;;;14.30;99.90;;;;;;5059049;28;20204;-64
2021/09/07 01:23:00;;;;;;;27.87;14.93;;;14.30;99.90;;;;;;5027374;28;20183;-65
2021/09/07 01:25:32;;;;;;;23.53;15.43;;;14.30;99.90;;;;;;5060984;28;20304;-64
2021/09/07 01:28:01;;;;;;;26.63;15.50;;;14.30;99.90;;;;;;5056656;28;20507;-65
2021/09/07 01:30:30;;;;;;;26.37;15.50;;;14.30;99.90;;;;;;5055925;28;20428;-65
2021/09/07 01:32:59;;;;;;;26.17;15.97;;;14.30;99.90;;;;;;5059911;28;20373;-64
2021/09/07 01:35:27;;;;;;;23.70;14.23;;;14.30;99.90;;;;;;5055803;28;20185;-64
2021/09/07 01:37:55;;;;;;;24.13;15.50;;;14.30;99.90;;;;;;5058752;28;20247;-65
2021/09/07 01:40:24;;;;;;;23.87;15.10;;;14.30;99.90;;;;;;5054449;28;20181;-65
2021/09/07 01:42:53;;;;;;;24.93;14.47;;;14.30;99.90;;;;;;5057784;28;20439;-64
2021/09/07 01:45:22;;;;;;;22.67;14.67;;;14.30;99.90;;;;;;5051227;28;20202;-64
2021/09/07 01:47:51;;;;;;;23.77;14.20;;;14.20;99.90;;;;;;5059418;28;20196;-64
2021/09/07 01:50:19;;;;;;;23.83;14.47;;;14.20;99.90;;;;;;5056420;28;20211;-64
2021/09/07 01:52:48;;;;;;;21.50;13.90;;;14.20;99.90;;;;;;5058219;28;20247;-65
2021/09/07 01:55:16;;;;;;;26.70;14.83;;;14.20;99.90;;;;;;5058307;28;20450;-64
2021/09/07 01:57:44;;;;;;;25.37;15.47;;;14.20;99.90;;;;;;5059578;28;20184;-65
2021/09/07 02:00:16;;;;;;;23.80;14.67;;;14.20;99.90;;;;;;5036066;28;20177;-65
2021/09/07 02:02:44;;;;;;;21.63;13.43;;;14.10;99.90;;;;;;5037662;28;20342;-65
2021/09/07 02:05:13;;;;;;;22.77;13.77;;;14.10;99.90;;;;;;5057757;28;20220;-65
2021/09/07 02:07:42;;;;;;;21.40;13.53;;;14.10;99.90;;;;;;5057082;28;20461;-64
2021/09/07 02:10:11;;;;;;;23.20;13.97;;;14.00;99.90;;;;;;5059576;28;20216;-65
2021/09/07 02:12:40;;;;;;;23.47;14.30;;;14.00;99.90;;;;;;5055413;28;20196;-65
2021/09/07 02:15:20;;;;;;;22.67;14.47;;;13.90;99.90;;;;;;5055199;28;20208;-65
2021/09/07 02:17:49;;;;;;;26.07;15.47;;;13.90;99.90;;;;;;5055346;28;20211;-64
2021/09/07 02:20:17;;;;;;;28.63;16.60;;;13.90;99.90;;;;;;5057975;28;20188;-64
2021/09/07 02:22:46;;;;;;;25.80;15.57;;;13.80;99.90;;;;;;5053325;28;20186;-64
2021/09/07 02:25:14;;;;;;;24.30;15.03;;;13.80;99.90;;;;;;5057921;28;20204;-64
2021/09/07 02:27:43;;;;;;;25.80;15.13;;;13.80;99.90;;;;;;5039741;28;20432;-65
2021/09/07 02:30:12;;;;;;;24.83;15.77;;;13.80;99.90;;;;;;5054009;28;20212;-65
2021/09/07 02:32:42;;;;;;;23.40;14.43;;;13.80;99.90;;;;;;5035866;28;20251;-64
2021/09/07 02:35:11;;;;;;;27.17;15.80;;;13.70;99.90;;;;;;5057612;28;20177;-64
2021/09/07 02:37:41;;;;;;;21.93;15.03;;;13.70;99.90;;;;;;5039552;28;20188;-65
2021/09/07 02:40:10;;;;;;;23.97;15.10;;;13.70;99.90;;;;;;5057541;28;20396;-64
2021/09/07 02:42:38;;;;;;;25.10;15.37;;;13.70;99.90;;;;;;5038957;28;20232;-64
2021/09/07 02:45:07;;;;;;;23.50;15.43;;;13.70;99.90;;;;;;5040503;28;20188;-64
2021/09/07 02:47:40;;;;;;;25.63;16.10;;;13.70;99.90;;;;;;5054247;28;20181;-65
2021/09/07 02:50:12;;;;;;;24.80;15.40;;;13.70;99.90;;;;;;5057496;28;20227;-64
2021/09/07 02:52:40;;;;;;;25.20;15.97;;;13.60;99.90;;;;;;5019455;28;20181;-64
2021/09/07 02:55:10;;;;;;;26.70;16.13;;;13.60;99.90;;;;;;5056672;28;20197;-64
2021/09/07 02:57:38;;;;;;;25.30;15.30;;;13.60;99.90;;;;;;5022240;28;20188;-64
2021/09/07 03:00:08;;;;;;;25.07;15.87;;;13.60;99.90;;;;;;5058498;28;20172;-65
2021/09/07 03:02:37;;;;;;;21.33;15.07;;;13.60;99.90;;;;;;5050693;28;20193;-65
2021/09/07 03:05:06;;;;;;;24.47;14.50;;;13.50;99.90;;;;;;5058430;28;20242;-64
2021/09/07 03:07:37;;;;;;;26.97;16.43;;;13.50;99.90;;;;;;5055091;28;20251;-64
2021/09/07 03:10:06;;;;;;;26.73;16.83;;;13.50;99.90;;;;;;5054386;28;20262;-65
2021/09/07 03:12:35;;;;;;;24.83;15.30;;;13.50;99.90;;;;;;5039182;28;20222;-64
2021/09/07 03:15:30;;;;;;;23.43;15.43;;;13.50;99.90;;;;;;5040145;28;20185;-64
2021/09/07 03:17:59;;;;;;;27.03;15.53;;;13.50;99.90;;;;;;5056207;28;20200;-65
2021/09/07 03:20:27;;;;;;;23.87;16.30;;;13.40;99.90;;;;;;5055820;28;20283;-65
2021/09/07 03:22:57;;;;;;;25.80;15.07;;;13.30;99.90;;;;;;5055178;28;20227;-65
2021/09/07 03:25:25;;;;;;;24.73;16.20;;;13.30;99.90;;;;;;5054172;28;20216;-65
2021/09/07 03:27:54;;;;;;;24.33;14.47;;;13.30;99.90;;;;;;5056375;28;20227;-65
2021/09/07 03:30:23;;;;;;;24.93;15.37;;;13.20;99.90;;;;;;5058565;28;20235;-65
2021/09/07 03:32:52;;;;;;;22.70;14.07;;;13.20;99.90;;;;;;5036564;28;20361;-64
2021/09/07 03:35:20;;;;;;;23.13;13.60;;;13.20;99.90;;;;;;5037322;28;20263;-65
2021/09/07 03:37:49;;;;;;;26.77;15.10;;;13.20;99.90;;;;;;5040554;28;20180;-65
2021/09/07 03:40:18;;;;;;;23.53;15.43;;;13.20;99.90;;;;;;5056491;28;20201;-65
2021/09/07 03:42:47;;;;;;;24.93;16.17;;;13.20;99.90;;;;;;5056189;28;20189;-64
2021/09/07 03:45:15;;;;;;;26.47;16.00;;;13.20;99.90;;;;;;5053746;28;20454;-64
2021/09/07 03:47:44;;;;;;;21.67;14.53;;;13.20;99.90;;;;;;5055156;28;20184;-64
2021/09/07 03:50:15;;;;;;;25.67;15.40;;;13.20;99.90;;;;;;5053037;28;20275;-64
2021/09/07 03:52:44;;;;;;;22.53;15.20;;;13.20;99.90;;;;;;5054991;28;20192;-64
2021/09/07 03:55:13;;;;;;;22.40;14.50;;;13.20;99.90;;;;;;5058586;28;20363;-64
2021/09/07 03:57:43;;;;;;;21.63;14.30;;;13.10;99.90;;;;;;5041990;28;20180;-65
2021/09/07 04:00:13;;;;;;;23.27;14.63;;;13.10;99.90;;;;;;5054782;28;20176;-64
2021/09/07 04:03:14;;;;;;;24.27;14.80;;;13.10;99.90;;;;;;5054102;28;20256;-64
2021/09/07 04:05:46;;;;;;;24.07;15.87;;;13.10;99.90;;;;;;5056168;28;20184;-64
2021/09/07 04:08:46;;;;;;;21.53;14.30;;;13.10;99.90;;;;;;5037390;28;20173;-64
2021/09/07 04:11:15;;;;;;;23.33;14.13;;;13.10;99.90;;;;;;5053241;28;20395;-64
2021/09/07 04:13:45;;;;;;;25.53;15.00;;;13.10;99.90;;;;;;5037580;28;20504;-65
2021/09/07 04:16:13;;;;;;;24.23;15.23;;;13.00;99.90;;;;;;5055146;28;20226;-64
2021/09/07 04:18:44;;;;;;;24.30;16.00;;;13.00;99.90;;;;;;5057008;28;20187;-64
2021/09/07 04:21:12;;;;;;;27.73;16.30;;;13.00;99.90;;;;;;5057193;28;20197;-64
2021/09/07 04:23:41;;;;;;;26.90;15.93;;;13.00;99.90;;;;;;5038289;28;20238;-64
2021/09/07 04:26:10;;;;;;;24.00;15.53;;;12.90;99.90;;;;;;5053452;28;20212;-64
2021/09/07 04:28:38;;;;;;;25.57;15.80;;;12.90;99.90;;;;;;5022764;28;20185;-64
2021/09/07 04:31:08;;;;;;;21.37;14.70;;;12.90;99.90;;;;;;5055271;28;20211;-64
2021/09/07 04:33:37;;;;;;;26.50;15.70;;;12.90;99.90;;;;;;5038478;28;20379;-64
2021/09/07 04:36:05;;;;;;;25.43;16.70;;;12.90;99.90;;;;;;5057918;28;20205;-65
2021/09/07 04:38:33;;;;;;;28.23;16.00;;;12.90;99.90;;;;;;5037056;28;20407;-64
2021/09/07 04:41:02;;;;;;;23.30;15.40;;;12.90;99.90;;;;;;5035827;28;20193;-64
2021/09/07 04:43:30;;;;;;;27.67;16.77;;;12.90;99.90;;;;;;5049716;28;20185;-64
2021/09/07 04:45:59;;;;;;;26.33;16.57;;;12.80;99.90;;;;;;5037757;28;20231;-64
2021/09/07 04:48:29;;;;;;;32.10;17.20;;;12.80;99.90;;;;;;5039354;28;20424;-64
2021/09/07 04:50:57;;;;;;;30.47;16.50;;;12.80;99.90;;;;;;5059827;28;20208;-65
2021/09/07 04:53:25;;;;;;;30.50;16.27;;;12.80;99.90;;;;;;5041370;28;20180;-64
2021/09/07 04:55:54;;;;;;;31.57;16.87;;;12.80;99.90;;;;;;5060067;28;20226;-64
2021/09/07 04:58:22;;;;;;;27.37;16.83;;;12.70;99.90;;;;;;5038873;28;20177;-64
2021/09/07 05:00:50;;;;;;;29.60;17.70;;;12.70;99.90;;;;;;5055325;28;20390;-64
2021/09/07 05:03:19;;;;;;;34.40;18.50;;;12.70;99.90;;;;;;5061976;28;20181;-65
2021/09/07 05:05:49;;;;;;;31.93;18.00;;;12.70;99.90;;;;;;5057337;28;20617;-64
2021/09/07 05:08:17;;;;;;;35.50;19.20;;;12.70;99.90;;;;;;5025366;28;20204;-64
2021/09/07 05:10:46;;;;;;;39.23;17.80;;;12.80;99.90;;;;;;5043634;28;20231;-65
2021/09/07 05:13:14;;;;;;;38.57;17.97;;;12.80;99.90;;;;;;5055926;28;20355;-64
2021/09/07 05:15:43;;;;;;;28.50;16.83;;;12.80;99.90;;;;;;5041105;28;20196;-64
2021/09/07 05:18:14;;;;;;;30.47;16.97;;;12.70;99.90;;;;;;5060769;28;20187;-64
2021/09/07 05:20:42;;;;;;;27.53;17.00;;;12.70;99.90;;;;;;5060187;28;20430;-64
2021/09/07 05:23:12;;;;;;;31.50;18.03;;;12.70;99.90;;;;;;5059666;28;20181;-64
2021/09/07 05:25:41;;;;;;;34.93;16.93;;;12.70;99.90;;;;;;5056588;28;20212;-64
2021/09/07 05:28:09;;;;;;;32.73;16.80;;;12.70;99.90;;;;;;5060350;28;20423;-64
2021/09/07 05:30:37;;;;;;;28.00;16.17;;;12.70;99.90;;;;;;5051696;28;20475;-64
2021/09/07 05:33:07;;;;;;;29.03;16.40;;;12.70;99.90;;;;;;5053481;28;20189;-64
2021/09/07 05:35:35;;;;;;;26.60;15.97;;;12.70;99.90;;;;;;5056299;28;20251;-64
2021/09/07 05:38:05;;;;;;;28.97;17.03;;;12.70;99.90;;;;;;5037351;28;20201;-64
2021/09/07 05:40:34;;;;;;;29.67;17.60;;;12.70;99.90;;;;;;5058425;28;20200;-64
2021/09/07 05:43:03;;;;;;;32.87;16.93;;;12.80;99.90;;;;;;5057938;28;20223;-64
2021/09/07 05:45:31;;;;;;;28.77;16.87;;;12.80;99.90;;;;;;5060743;28;20441;-64
2021/09/07 05:47:59;;;;;;;28.97;17.70;;;12.90;99.90;;;;;;5058305;28;20230;-64
2021/09/07 05:50:31;;;;;;;34.97;17.90;;;12.90;99.90;;;;;;5052927;28;20201;-65
2021/09/07 05:52:59;;;;;;;29.87;18.03;;;13.00;99.90;;;;;;5058452;28;20177;-64
2021/09/07 05:55:28;;;;;;;33.30;19.77;;;13.00;99.90;;;;;;5057337;28;20304;-64
2021/09/07 05:57:57;;;;;;;36.30;19.67;;;13.10;99.90;;;;;;5059343;28;20185;-64
2021/09/07 06:00:26;;;;;;;29.33;18.80;;;13.10;99.90;;;;;;5053891;28;20181;-64
2021/09/07 06:02:57;;;;;;;30.57;18.17;;;13.10;99.90;;;;;;5060944;28;20184;-64
2021/09/07 06:05:26;;;;;;;35.73;18.77;;;13.20;99.90;;;;;;5057863;28;20240;-64
2021/09/07 06:07:55;;;;;;;33.83;18.70;;;13.30;99.90;;;;;;5057895;28;20188;-64
2021/09/07 06:10:23;;;;;;;35.33;18.77;;;13.30;99.90;;;;;;5058650;28;20196;-64
2021/09/07 06:12:52;;;;;;;29.17;17.97;;;13.40;99.90;;;;;;5044494;28;20454;-64
2021/09/07 06:15:21;;;;;;;37.40;20.50;;;13.40;99.90;;;;;;5059571;28;20187;-64
2021/09/07 06:17:50;;;;;;;31.17;18.67;;;13.50;99.90;;;;;;5060856;28;20187;-64
2021/09/07 06:20:18;;;;;;;35.50;19.63;;;13.60;99.90;;;;;;5060013;28;20181;-64
2021/09/07 06:22:46;;;;;;;32.23;19.13;;;13.60;99.90;;;;;;5055139;28;20455;-64
2021/09/07 06:25:15;;;;;;;37.77;20.13;;;13.70;99.90;;;;;;5058692;28;20274;-65
2021/09/07 06:27:43;;;;;;;38.17;21.73;;;13.80;99.90;;;;;;5058730;28;20197;-64
2021/09/07 06:30:12;;;;;;;38.80;21.70;;;13.90;99.90;;;;;;5045580;28;20390;-65
2021/09/07 06:32:42;;;;;;;38.00;21.97;;;14.00;99.90;;;;;;5056474;28;20223;-64
2021/09/07 06:35:11;;;;;;;39.77;22.80;;;14.20;99.90;;;;;;5056741;28;20358;-64
2021/09/07 06:37:41;;;;;;;37.77;21.03;;;14.30;99.90;;;;;;5042727;28;20216;-64
2021/09/07 06:40:11;;;;;;;44.27;22.73;;;14.40;99.90;;;;;;5057761;28;20186;-64
2021/09/07 06:42:40;;;;;;;46.90;24.03;;;14.60;99.90;;;;;;5060732;28;20411;-64
2021/09/07 06:45:09;;;;;;;43.63;25.27;;;14.70;99.90;;;;;;5055383;28;20181;-64
2021/09/07 06:47:38;;;;;;;47.43;24.90;;;14.90;99.90;;;;;;5059206;28;20185;-65
2021/09/07 06:50:11;;;;;;;42.47;23.40;;;15.00;99.90;;;;;;5060512;28;20412;-65
2021/09/07 06:52:40;;;;;;;41.07;22.93;;;15.10;99.90;;;;;;5037593;28;20228;-64
2021/09/07 06:55:10;;;;;;;44.63;25.00;;;15.30;99.90;;;;;;5056755;28;20211;-64
2021/09/07 06:57:38;;;;;;;40.60;23.50;;;15.40;99.90;;;;;;5057080;28;20369;-65
2021/09/07 07:00:08;;;;;;;42.97;23.23;;;15.50;99.90;;;;;;5059503;28;20194;-64
2021/09/07 07:02:39;;;;;;;37.97;22.43;;;15.60;99.90;;;;;;5039906;28;20185;-64
2021/09/07 07:05:10;;;;;;;46.90;22.77;;;15.80;99.90;;;;;;5057486;28;20452;-65
2021/09/07 07:07:39;;;;;;;41.03;22.37;;;16.00;99.90;;;;;;5049231;28;20173;-64
2021/09/07 07:10:08;;;;;;;41.63;23.53;;;16.20;99.90;;;;;;5059680;28;20204;-65
2021/09/07 07:12:40;;;;;;;41.83;24.07;;;16.60;99.90;;;;;;5052589;28;20254;-64
2021/09/07 07:15:10;;;;;;;44.27;24.97;;;16.90;99.90;;;;;;5059377;28;20208;-65
2021/09/07 07:17:38;;;;;;;42.27;23.73;;;17.30;99.90;;;;;;5038376;28;20192;-64
2021/09/07 07:20:07;;;;;;;40.70;22.47;;;17.40;99.90;;;;;;5052836;28;20335;-64
2021/09/07 07:22:38;;;;;;;39.70;23.93;;;17.50;99.90;;;;;;5053893;28;20188;-65
2021/09/07 07:25:08;;;;;;;46.07;23.33;;;17.70;99.90;;;;;;5055588;28;20278;-65
2021/09/07 07:27:38;;;;;;;43.40;24.67;;;17.80;99.90;;;;;;5055130;28;20195;-64
2021/09/07 07:30:08;;;;;;;39.67;23.40;;;18.10;99.90;;;;;;5054049;28;20202;-65
2021/09/07 07:32:38;;;;;;;41.27;24.60;;;18.20;99.90;;;;;;5055898;28;20202;-65
2021/09/07 07:35:07;;;;;;;36.27;21.87;;;18.40;99.90;;;;;;5058196;28;20187;-64
2021/09/07 07:37:35;;;;;;;43.40;23.43;;;18.60;99.90;;;;;;5055335;28;20185;-65
2021/09/07 07:40:07;;;;;;;38.33;23.37;;;18.80;99.90;;;;;;5061396;28;20201;-65
2021/09/07 07:42:36;;;;;;;43.57;23.50;;;19.20;99.90;;;;;;5053336;28;20240;-65
2021/09/07 07:45:05;;;;;;;36.77;22.93;;;19.30;99.90;;;;;;5060065;28;20223;-65
2021/09/07 07:47:34;;;;;;;40.93;23.20;;;19.40;99.90;;;;;;5056024;28;20480;-64
2021/09/07 07:50:02;;;;;;;40.57;23.40;;;19.60;99.90;;;;;;5055200;28;20181;-65
2021/09/07 07:52:31;;;;;;;39.87;21.80;;;19.60;99.90;;;;;;5054528;28;20520;-64
2021/09/07 07:54:59;;;;;;;35.97;21.70;;;19.70;99.90;;;;;;5053108;28;20192;-65
2021/09/07 07:57:29;;;;;;;37.73;21.43;;;19.80;99.90;;;;;;5056751;28;20224;-65
2021/09/07 07:59:57;;;;;;;44.93;23.80;;;19.90;99.90;;;;;;5059877;28;20411;-65
2021/09/07 08:02:28;;;;;;;39.33;22.83;;;20.00;99.90;;;;;;5057253;28;20181;-65
2021/09/07 08:04:57;;;;;;;41.50;22.80;;;20.10;99.90;;;;;;5059610;28;20197;-65
2021/09/07 08:07:25;;;;;;;44.87;23.63;;;20.20;99.90;;;;;;5060933;28;20189;-65
2021/09/07 08:09:54;;;;;;;41.53;22.57;;;20.40;99.90;;;;;;5060088;28;20423;-64
2021/09/07 08:12:22;;;;;;;41.13;22.87;;;20.70;99.90;;;;;;5023735;28;20217;-65
2021/09/07 08:14:53;;;;;;;35.33;22.00;;;20.70;99.90;;;;;;5060727;28;20238;-65
2021/09/07 08:17:22;;;;;;;41.73;23.87;;;20.70;99.90;;;;;;5056069;28;20215;-65
2021/09/07 08:19:50;;;;;;;40.07;23.43;;;20.80;99.90;;;;;;5056071;28;20181;-65
2021/09/07 08:22:22;;;;;;;42.83;22.60;;;20.70;99.90;;;;;;5050168;28;20325;-66
2021/09/07 08:24:51;;;;;;;36.83;22.50;;;20.70;99.90;;;;;;5058318;28;20220;-65
2021/09/07 08:27:20;;;;;;;47.17;23.97;;;20.70;99.90;;;;;;5051915;28;20251;-65
2021/09/07 08:29:48;;;;;;;42.67;23.37;;;20.70;99.90;;;;;;5061032;28;20180;-65
2021/09/07 08:32:18;;;;;;;35.63;21.87;;;20.80;99.90;;;;;;5058932;28;20209;-65
2021/09/07 08:34:52;;;;;;;35.40;20.37;;;20.90;99.90;;;;;;5058331;28;20188;-65
2021/09/07 08:37:21;;;;;;;37.63;21.50;;;21.00;99.90;;;;;;5064334;28;20450;-65
2021/09/07 08:39:49;;;;;;;44.83;24.10;;;21.30;99.90;;;;;;5061510;28;20222;-65
2021/09/07 08:42:17;;;;;;;40.97;22.17;;;21.50;99.90;;;;;;5062330;28;20188;-65
2021/09/07 08:44:47;;;;;;;43.73;23.00;;;21.60;99.90;;;;;;5057290;28;20422;-65
2021/09/07 08:47:17;;;;;;;45.63;25.07;;;21.90;99.90;;;;;;5059762;28;20181;-65
2021/09/07 08:49:48;;;;;;;37.23;23.00;;;22.00;99.90;;;;;;5057112;28;20208;-65
2021/09/07 08:52:19;;;;;;;39.97;23.00;;;22.00;99.90;;;;;;5056490;28;20182;-65
2021/09/07 08:54:47;;;;;;;38.70;22.23;;;22.20;99.90;;;;;;5060912;28;20201;-65
2021/09/07 08:57:16;;;;;;;44.80;21.73;;;22.40;99.90;;;;;;5043829;28;20355;-65
2021/09/07 08:59:55;;;;;;;35.87;20.40;;;22.70;99.90;;;;;;5042604;28;20246;-65
2021/09/07 09:02:27;;;;;;;39.33;20.70;;;23.00;99.90;;;;;;5059072;28;20212;-65
2021/09/07 09:04:58;;;;;;;37.07;20.07;;;23.20;99.90;;;;;;5059332;28;20199;-65
2021/09/07 09:07:28;;;;;;;35.50;20.07;;;23.40;99.90;;;;;;5058713;28;20427;-65
2021/09/07 09:09:58;;;;;;;37.27;19.83;;;23.60;99.90;;;;;;5061969;28;20181;-65
2021/09/07 09:12:32;;;;;;;30.73;19.50;;;23.50;99.90;;;;;;5060411;28;20216;-65
2021/09/07 09:15:01;;;;;;;34.57;19.50;;;23.90;99.90;;;;;;5042761;28;20206;-65
2021/09/07 09:17:32;;;;;;;36.57;17.60;;;24.00;99.90;;;;;;5056279;28;20238;-65
2021/09/07 09:20:03;;;;;;;33.23;17.57;;;24.00;99.90;;;;;;5040660;28;20187;-65
2021/09/07 09:22:49;;;;;;;30.53;17.83;;;24.10;99.90;;;;;;5062055;28;20214;-64
2021/09/07 09:25:26;;;;;;;33.70;17.80;;;24.20;99.90;;;;;;5058745;28;20221;-64
2021/09/07 09:28:19;;;;;;;28.57;16.47;;;24.20;99.90;;;;;;5038763;28;20207;-65
2021/09/07 09:30:49;;;;;;;28.40;17.23;;;24.40;99.90;;;;;;5055903;28;20198;-65
2021/09/07 09:33:21;;;;;;;26.17;15.60;;;24.70;99.90;;;;;;5035319;28;20198;-65
2021/09/07 09:35:55;;;;;;;30.50;17.20;;;24.70;99.90;;;;;;5059859;28;20418;-65
2021/09/07 09:38:25;;;;;;;26.17;16.03;;;24.80;99.90;;;;;;5059782;28;20192;-65
2021/09/07 09:40:58;;;;;;;28.10;16.70;;;24.90;99.90;;;;;;5042142;28;20191;-66
2021/09/07 09:43:32;;;;;;;24.17;15.33;;;25.10;99.90;;;;;;5058598;28;20195;-65
2021/09/07 09:46:23;;;;;;;26.03;15.27;;;25.30;99.90;;;;;;5039989;28;20385;-65
2021/09/07 09:48:54;;;;;;;24.77;15.07;;;25.50;99.90;;;;;;5057058;28;20260;-65
2021/09/07 09:51:24;;;;;;;23.40;15.07;;;25.70;99.90;;;;;;5056839;28;20370;-65
2021/09/07 09:53:53;;;;;;;20.70;15.10;;;25.80;99.90;;;;;;5035530;28;20528;-65
2021/09/07 09:56:22;;;;;;;23.27;14.40;;;26.00;99.90;;;;;;5056037;28;20200;-65
2021/09/07 09:58:51;;;;;;;24.33;13.87;;;26.00;99.90;;;;;;5039595;28;20429;-65
2021/09/07 10:01:20;;;;;;;21.83;13.90;;;25.90;99.90;;;;;;5060009;28;20267;-65
2021/09/07 10:03:52;;;;;;;18.13;13.37;;;25.90;99.90;;;;;;5060126;28;20188;-65
2021/09/07 10:06:20;;;;;;;19.67;13.70;;;25.90;99.90;;;;;;5060418;28;20391;-65
2021/09/07 10:08:49;;;;;;;21.40;13.60;;;26.30;99.90;;;;;;5058800;28;20204;-65
2021/09/07 10:11:21;;;;;;;21.30;12.50;;;26.40;99.90;;;;;;5058013;28;20200;-65
2021/09/07 10:13:55;;;;;;;22.73;15.03;;;26.70;99.90;;;;;;5064557;28;20236;-65
2021/09/07 10:16:30;;;;;;;20.57;13.13;;;26.70;99.90;;;;;;5057512;28;20184;-65
2021/09/07 10:19:07;;;;;;;19.80;12.17;;;26.80;99.90;;;;;;5041350;28;20184;-65
2021/09/07 10:24:58;;;;;;;20.80;13.70;;;27.00;99.90;;;;;;5055501;28;20323;-65
2021/09/07 10:28:06;;;;;;;19.03;12.97;;;27.10;99.90;;;;;;5048735;28;20216;-65
2021/09/07 10:30:59;;;;;;;18.03;11.83;;;26.90;99.90;;;;;;5055464;28;20193;-65
2021/09/07 10:33:36;;;;;;;22.10;12.70;;;27.10;99.90;;;;;;5050029;28;20269;-65
2021/09/07 10:36:10;;;;;;;21.23;12.27;;;27.50;99.90;;;;;;5060858;28;20192;-65
2021/09/07 10:38:40;;;;;;;19.33;11.80;;;27.50;99.90;;;;;;5056774;28;20192;-65
2021/09/07 10:41:10;;;;;;;18.17;11.17;;;27.50;99.90;;;;;;5038783;28;20451;-65
2021/09/07 10:44:02;;;;;;;15.57;11.00;;;27.50;99.90;;;;;;5060883;28;20244;-65
2021/09/07 10:46:45;;;;;;;18.38;11.07;;;27.70;99.90;;;;;;5048676;28;20370;-65
2021/09/07 10:49:19;;;;;;;16.80;10.82;;;27.80;99.90;;;;;;5053677;28;20189;-65
2021/09/07 10:52:08;;;;;;;17.33;11.23;;;27.90;99.90;;;;;;5061135;28;20186;-65
2021/09/07 10:54:42;;;;;;;15.80;10.90;;;28.40;99.90;;;;;;5059608;28;20212;-64
2021/09/07 10:57:31;;;;;;;16.53;10.93;;;28.50;99.90;;;;;;5060176;28;20224;-64
2021/09/07 11:00:01;;;;;;;15.07;10.03;;;28.40;99.90;;;;;;5056586;28;20318;-65
2021/09/07 11:02:40;;;;;;;16.47;10.60;;;28.40;99.90;;;;;;5059703;28;20213;-65
2021/09/07 11:05:12;;;;;;;15.43;10.50;;;28.40;99.90;;;;;;5034391;28;20229;-65
2021/09/07 11:07:43;;;;;;;14.63;9.70;;;28.50;99.90;;;;;;5060977;28;20185;-65
2021/09/07 11:10:28;;;;;;;15.02;9.70;;;28.50;99.90;;;;;;5059507;28;20190;-65
2021/09/07 11:12:58;;;;;;;13.40;9.53;;;28.40;99.90;;;;;;5060892;28;20215;-66
2021/09/07 11:15:30;;;;;;;19.63;9.95;;;28.30;99.90;;;;;;5064295;28;20223;-65
2021/09/07 11:18:00;;;;;;;19.37;10.80;;;28.20;99.90;;;;;;5059838;28;20216;-65
2021/09/07 11:20:33;;;;;;;15.87;10.73;;;28.10;99.90;;;;;;5060970;28;20189;-65
2021/09/07 11:23:11;;;;;;;14.40;9.00;;;28.20;99.90;;;;;;5061160;28;20192;-65
2021/09/07 11:25:40;;;;;;;17.80;10.47;;;28.20;99.90;;;;;;5056539;28;20271;-65
2021/09/07 11:28:12;;;;;;;16.00;10.40;;;28.20;99.90;;;;;;5058023;28;20238;-65
2021/09/07 11:30:41;;;;;;;15.00;10.57;;;28.30;99.90;;;;;;5054388;28;20188;-65
2021/09/07 11:33:12;;;;;;;13.87;10.07;;;28.50;99.90;;;;;;5057532;28;20193;-65
2021/09/07 11:35:44;;;;;;;15.80;10.37;;;28.60;99.90;;;;;;5058192;28;20386;-65
2021/09/07 11:38:15;;;;;;;16.57;9.67;;;28.70;99.90;;;;;;5059339;28;20189;-65
2021/09/07 11:40:47;;;;;;;15.52;9.60;;;28.70;99.90;;;;;;5054377;28;20205;-64
2021/09/07 11:43:28;;;;;;;13.13;8.97;;;28.80;99.90;;;;;;5048548;28;20181;-65
2021/09/07 11:46:12;;;;;;;13.13;9.63;;;28.90;99.90;;;;;;5053343;28;20185;-65
2021/09/07 11:48:45;;;;;;;13.52;9.77;;;29.20;99.90;;;;;;5062099;28;20416;-65
2021/09/07 11:51:16;;;;;;;13.80;8.80;;;29.20;99.90;;;;;;5041948;28;20181;-65
2021/09/07 11:53:46;;;;;;;13.65;8.85;;;29.30;99.90;;;;;;5059599;28;20178;-64
2021/09/07 11:56:20;;;;;;;10.80;8.02;;;29.40;99.90;;;;;;5056425;28;20417;-65
2021/09/07 11:58:49;;;;;;;17.42;9.43;;;29.40;99.90;;;;;;5058095;28;20217;-65
2021/09/07 12:01:19;;;;;;;12.32;8.48;;;29.40;99.90;;;;;;5058072;28;20184;-65
2021/09/07 12:03:50;;;;;;;12.65;8.80;;;29.70;99.90;;;;;;5062271;28;20279;-64
2021/09/07 12:06:36;;;;;;;9.98;8.65;;;29.90;99.90;;;;;;5056346;28;20200;-65
2021/09/07 12:09:17;;;;;;;13.18;8.15;;;29.60;99.90;;;;;;5061356;28;20185;-65
2021/09/07 12:11:48;;;;;;;10.93;8.43;;;29.60;99.90;;;;;;5051122;28;20208;-65
2021/09/07 12:14:21;;;;;;;9.57;8.40;;;29.60;99.90;;;;;;5058731;28;20290;-66
2021/09/07 12:16:53;;;;;;;10.18;7.93;;;29.60;99.90;;;;;;5056927;28;20492;-65
2021/09/07 12:19:23;;;;;;;12.27;8.48;;;29.60;99.90;;;;;;5060212;28;20193;-66
2021/09/07 12:22:13;;;;;;;11.35;8.63;;;29.70;99.90;;;;;;5056618;28;20186;-65
2021/09/07 12:24:58;;;;;;;12.77;8.27;;;30.00;99.90;;;;;;5058815;28;20293;-65
2021/09/07 12:27:41;;;;;;;11.95;8.93;;;30.00;99.90;;;;;;5055688;28;20188;-65
2021/09/07 12:30:20;;;;;;;10.73;8.57;;;29.90;99.90;;;;;;5048547;28;20234;-65
2021/09/07 12:32:55;;;;;;;13.80;9.25;;;29.90;99.90;;;;;;5058585;28;20186;-65
2021/09/07 12:35:28;;;;;;;15.07;8.63;;;29.80;99.90;;;;;;5059630;28;20222;-66
2021/09/07 12:37:57;;;;;;;15.55;8.50;;;29.60;99.90;;;;;;5062811;28;20249;-65
2021/09/07 12:40:27;;;;;;;12.00;8.95;;;29.40;99.90;;;;;;5059726;28;20196;-64
2021/09/07 12:43:12;;;;;;;17.85;9.85;;;29.30;99.90;;;;;;5056660;28;20412;-65
2021/09/07 12:45:42;;;;;;;13.68;8.75;;;29.30;99.90;;;;;;5058253;28;20231;-65
2021/09/07 12:48:10;;;;;;;11.82;9.02;;;29.20;99.90;;;;;;5053681;28;20186;-65
2021/09/07 12:50:39;;;;;;;10.52;8.55;;;29.20;99.90;;;;;;5062499;28;20188;-65